createdAt,value
2022-08-01T00:04:48.718Z,4.0065
2022-08-01T00:10:00.542Z,4.0016
2022-08-01T00:15:12.322Z,4.0016
2022-08-01T00:25:36.313Z,4.0065
2022-08-01T00:30:48.328Z,4.0016
2022-08-01T00:36:01.230Z,4.0016
2022-08-01T00:41:12.986Z,4.0016
2022-08-01T00:51:37.344Z,4.0016
2022-08-01T00:56:49.590Z,4.0065
2022-08-01T01:02:02.159Z,4.0016
2022-08-01T01:07:14.429Z,4.0016
2022-08-01T01:17:52.880Z,4.0016
2022-08-01T01:23:02.230Z,4.0016
2022-08-01T01:28:14.421Z,4.0065
2022-08-01T01:38:38.673Z,4.0016
2022-08-01T01:43:50.828Z,4.0016
2022-08-01T01:49:03.536Z,4.0016
2022-08-01T01:54:15.580Z,4.0016
2022-08-01T01:59:27.763Z,4.0016
2022-08-01T02:04:39.824Z,4.0016
2022-08-01T02:09:52.018Z,4.0016
2022-08-01T02:15:04.431Z,4.0016
2022-08-01T02:20:16.571Z,4.0016
2022-08-01T02:25:28.565Z,4.0016
2022-08-01T02:30:40.811Z,4.0016
2022-08-01T02:36:34.502Z,4.0016
2022-08-01T02:41:41.341Z,4.0016
2022-08-01T02:46:53.152Z,4.0016
2022-08-01T02:52:07.411Z,4.0016
2022-08-01T03:02:33.602Z,4.0016
2022-08-01T03:07:50.023Z,3.9967
2022-08-01T03:13:04.233Z,3.9967
2022-08-01T03:18:16.432Z,3.9967
2022-08-01T03:23:39.412Z,4.0016
2022-08-01T03:28:49.713Z,3.9967
2022-08-01T03:34:06.992Z,3.9967
2022-08-01T03:44:30.963Z,4.0016
2022-08-01T03:49:43.071Z,3.9967
2022-08-01T03:54:55.187Z,3.9967
2022-08-01T04:00:07.295Z,3.9967
2022-08-01T04:15:43.582Z,3.9967
2022-08-01T04:20:55.662Z,3.9967
2022-08-01T04:26:07.871Z,3.9967
2022-08-01T04:36:32.011Z,3.9967
2022-08-01T04:41:44.192Z,3.9967
2022-08-01T04:46:56.262Z,3.9967
2022-08-01T04:52:25.079Z,3.9967
2022-08-01T04:57:34.091Z,3.9918
2022-08-01T05:02:46.144Z,3.9918
2022-08-01T05:07:58.262Z,3.9967
2022-08-01T05:13:10.364Z,3.9967
2022-08-01T05:18:31.271Z,3.9918
2022-08-01T05:23:44.471Z,4.0016
2022-08-01T05:28:55.862Z,3.9967
2022-08-01T05:34:16.162Z,3.9967
2022-08-01T05:39:29.214Z,3.9918
2022-08-01T05:44:41.205Z,4.0016
2022-08-01T05:49:53.512Z,3.9918
2022-08-01T05:55:06.040Z,3.9918
2022-08-01T06:05:30.506Z,3.9918
2022-08-01T06:10:42.639Z,3.9918
2022-08-01T06:15:55.110Z,3.9918
2022-08-01T06:21:07.429Z,3.9918
2022-08-01T06:31:35.048Z,3.9918
2022-08-01T06:36:46.579Z,3.9918
2022-08-01T06:41:58.990Z,3.9967
2022-08-01T06:47:11.449Z,3.9918
2022-08-01T06:57:36.508Z,3.9918
2022-08-01T07:02:48.968Z,3.9918
2022-08-01T07:08:01.658Z,3.9918
2022-08-01T07:13:14.063Z,3.9967
2022-08-01T07:18:27.448Z,3.9918
2022-08-01T07:23:47.399Z,3.9967
2022-08-01T07:29:03.969Z,3.987
2022-08-01T07:34:17.181Z,3.987
2022-08-01T07:39:29.390Z,3.9967
2022-08-01T07:44:41.778Z,3.987
2022-08-01T07:49:54.099Z,3.9918
2022-08-01T07:55:06.689Z,3.987
2022-08-01T08:06:01.408Z,3.987
2022-08-01T08:11:09.599Z,3.987
2022-08-01T08:21:35.084Z,3.987
2022-08-01T08:26:53.179Z,3.987
2022-08-01T08:32:08.192Z,3.987
2022-08-01T08:42:34.000Z,3.987
2022-08-01T08:47:46.679Z,3.987
2022-08-01T08:52:59.434Z,3.987
2022-08-01T08:58:12.279Z,3.987
2022-08-01T09:08:38.061Z,3.987
2022-08-01T09:13:50.972Z,3.9821
2022-08-01T09:19:03.520Z,3.9918
2022-08-01T09:24:31.479Z,3.987
2022-08-01T09:30:02.244Z,3.987
2022-08-01T09:35:14.770Z,3.9918
2022-08-01T09:40:29.131Z,3.9821
2022-08-01T09:45:55.584Z,3.9821
2022-08-01T09:51:11.049Z,3.987
2022-08-01T10:01:43.323Z,3.9821
2022-08-01T10:06:57.510Z,3.987
2022-08-01T10:12:17.540Z,3.9821
2022-08-01T10:22:43.359Z,3.9821
2022-08-01T10:27:56.550Z,3.9821
2022-08-01T10:33:19.952Z,3.9821
2022-08-01T10:39:00.840Z,3.9821
2022-08-01T10:44:14.520Z,3.9821
2022-08-01T10:54:54.229Z,3.987
2022-08-01T11:00:04.980Z,3.9821
2022-08-01T11:05:24.453Z,3.987
2022-08-01T11:10:41.389Z,3.9821
2022-08-01T11:16:24.575Z,3.9821
2022-08-01T11:22:02.810Z,3.987
2022-08-01T11:27:11.829Z,3.9967
2022-08-01T11:37:39.470Z,4.1626
2022-08-01T11:48:05.485Z,4.1675
2022-08-01T12:03:48.260Z,4.1675
2022-08-01T12:09:13.200Z,4.1675
2022-08-01T12:14:31.210Z,4.1675
2022-08-01T12:40:32.179Z,4.148
2022-08-01T12:50:55.496Z,4.1285
2022-08-01T13:06:32.466Z,4.109
2022-08-01T13:22:07.646Z,4.1724
2022-08-01T13:42:52.775Z,4.1773
2022-08-01T14:13:58.996Z,4.148
2022-08-01T14:30:05.588Z,4.1431
2022-08-01T14:35:13.845Z,4.1431
2022-08-01T14:45:37.296Z,4.1382
2022-08-01T14:56:00.655Z,4.1285
2022-08-01T15:11:35.766Z,4.1285
2022-08-01T15:16:48.267Z,4.1236
2022-08-01T15:22:02.878Z,4.1236
2022-08-01T15:27:14.736Z,4.1431
2022-08-01T15:53:11.647Z,4.2017
2022-08-01T16:03:36.934Z,4.187
2022-08-01T16:14:00.113Z,4.1773
2022-08-01T16:29:46.954Z,4.1626
2022-08-01T16:35:03.256Z,4.1578
2022-08-01T16:50:36.927Z,4.1578
2022-08-01T16:55:52.077Z,4.1431
2022-08-01T17:06:17.367Z,4.1382
2022-08-01T17:16:39.598Z,4.1334
2022-08-01T17:27:02.836Z,4.1334
2022-08-01T17:37:26.437Z,4.1334
2022-08-01T17:42:39.258Z,4.1285
2022-08-01T17:47:52.748Z,4.1236
2022-08-01T18:18:57.520Z,4.1285
2022-08-01T18:39:44.068Z,4.1236
2022-08-01T18:50:08.188Z,4.1138
2022-08-01T19:00:33.148Z,4.1138
2022-08-01T19:05:45.557Z,4.1138
2022-08-01T19:10:58.398Z,4.109
2022-08-01T19:26:33.857Z,4.109
2022-08-01T19:31:51.578Z,4.1041
2022-08-01T19:37:06.586Z,4.1041
2022-08-01T19:47:58.812Z,4.1041
2022-08-01T19:53:07.688Z,4.0992
2022-08-01T19:58:29.828Z,4.0992
2022-08-01T20:03:40.732Z,4.0992
2022-08-01T20:14:03.287Z,4.0894
2022-08-01T20:24:32.799Z,4.0894
2022-08-01T20:29:46.147Z,4.0846
2022-08-01T20:34:58.538Z,4.0846
2022-08-01T20:40:15.527Z,4.0846
2022-08-01T20:50:56.199Z,4.0846
2022-08-01T20:56:06.123Z,4.0797
2022-08-01T21:11:43.591Z,4.0797
2022-08-01T21:16:55.948Z,4.0797
2022-08-01T21:22:15.349Z,4.0797
2022-08-01T21:27:35.180Z,4.0797
2022-08-01T21:32:46.541Z,4.0748
2022-08-01T21:37:58.998Z,4.0748
2022-08-01T21:43:11.249Z,4.0748
2022-08-01T21:48:32.298Z,4.0748
2022-08-01T21:53:49.598Z,4.0797
2022-08-01T21:59:05.079Z,4.0699
2022-08-01T22:04:17.188Z,4.0699
2022-08-01T22:09:29.822Z,4.0699
2022-08-01T22:19:54.841Z,4.0699
2022-08-01T22:25:07.208Z,4.0699
2022-08-01T22:35:31.378Z,4.065
2022-08-01T22:45:53.530Z,4.065
2022-08-01T22:51:05.669Z,4.065
2022-08-01T23:01:30.554Z,4.065
2022-08-01T23:06:42.601Z,4.065
2022-08-01T23:11:55.029Z,4.065
2022-08-01T23:17:30.477Z,4.0699
2022-08-01T23:22:39.039Z,4.0602
2022-08-01T23:28:07.158Z,4.0602
2022-08-01T23:33:16.273Z,4.0602
2022-08-01T23:38:28.310Z,4.0602
2022-08-01T23:43:53.378Z,4.0602
2022-08-01T23:49:03.480Z,4.0602
2022-08-01T23:59:54.918Z,4.0553
